EDV1455 KLGA-KDCA
Flight info
| Callsign | EDV1455 |
|---|---|
| Flight time | N/A |
| Altitude | 28000 |
| Route | BIGGY Q75 MXE CLIPR3 |
| Aircraft | CRJ9/M-SDFGIRWY/S |
Departure
| Time | 2026-05-06 20:34 |
|---|---|
| Airport | LaGuardia Airport (KLGA) |
Arrival
| Time | N/A |
|---|---|
| Airport | Ronald Reagan Washington National Airport (KDCA) |
| Time | Latitude | Longitude | Altitude | Speed | Heading |
|---|---|---|---|---|---|
| 2026-05-06 20:13 | 40.77636 | -73.87171 | 19 ft | 0 kts | 169° |
| 2026-05-06 20:26 | 40.77652 | -73.87177 | 18 ft | 4 kts | 150° |
| 2026-05-06 20:27 | 40.77668 | -73.87202 | 21 ft | 4 kts | 118° |
| 2026-05-06 20:27 | 40.77681 | -73.87233 | 20 ft | 4 kts | 122° |
| 2026-05-06 20:27 | 40.77696 | -73.87262 | 19 ft | 4 kts | 126° |
| 2026-05-06 20:27 | 40.77712 | -73.87290 | 18 ft | 4 kts | 130° |
| 2026-05-06 20:28 | 40.77717 | -73.87298 | 19 ft | 1 kts | 130° |
| 2026-05-06 20:30 | 40.77708 | -73.87283 | 18 ft | 5 kts | 130° |
| 2026-05-06 20:30 | 40.77699 | -73.87252 | 21 ft | 0 kts | 77° |
| 2026-05-06 20:31 | 40.77702 | -73.87248 | 21 ft | 1 kts | 36° |
| 2026-05-06 20:31 | 40.77717 | -73.87251 | 17 ft | 6 kts | 342° |
| 2026-05-06 20:31 | 40.77770 | -73.87308 | 15 ft | 12 kts | 284° |
| 2026-05-06 20:31 | 40.77776 | -73.87376 | 13 ft | 1 kts | 320° |
| 2026-05-06 20:32 | 40.77803 | -73.87397 | 12 ft | 10 kts | 334° |
| 2026-05-06 20:32 | 40.77863 | -73.87486 | 14 ft | 17 kts | 304° |
| 2026-05-06 20:32 | 40.77944 | -73.87651 | 15 ft | 27 kts | 302° |
| 2026-05-06 20:32 | 40.78033 | -73.87820 | 15 ft | 16 kts | 333° |
| 2026-05-06 20:33 | 40.78137 | -73.87858 | 18 ft | 15 kts | 347° |
| 2026-05-06 20:33 | 40.78195 | -73.87803 | 15 ft | 13 kts | 101° |
| 2026-05-06 20:33 | 40.78162 | -73.87712 | 13 ft | 4 kts | 121° |
| 2026-05-06 20:33 | 40.78079 | -73.87538 | 8 ft | 58 kts | 122° |
| 2026-05-06 20:34 | 40.77735 | -73.86817 | 11 ft | 125 kts | 122° |
| 2026-05-06 20:34 | 40.77184 | -73.85645 | 102 ft | 169 kts | 119° |
| 2026-05-06 20:34 | 40.76674 | -73.84290 | 935 ft | 165 kts | 116° |
| 2026-05-06 20:34 | 40.76145 | -73.82769 | 1223 ft | 201 kts | 131° |
| 2026-05-06 20:35 | 40.74924 | -73.81806 | 1538 ft | 216 kts | 178° |
| 2026-05-06 20:35 | 40.73443 | -73.82224 | 2107 ft | 226 kts | 211° |
| 2026-05-06 20:35 | 40.72042 | -73.83238 | 3143 ft | 227 kts | 213° |
| 2026-05-06 20:35 | 40.70664 | -73.84271 | 4270 ft | 234 kts | 216° |
| 2026-05-06 20:36 | 40.69288 | -73.85509 | 5060 ft | 245 kts | 227° |
| 2026-05-06 20:36 | 40.68375 | -73.87318 | 6158 ft | 240 kts | 254° |
| 2026-05-06 20:36 | 40.68323 | -73.89508 | 7144 ft | 241 kts | 272° |